createdAt,value
2023-06-02T00:00:14.322Z,73
2023-06-02T00:01:21.440Z,73
2023-06-02T00:02:28.160Z,73
2023-06-02T00:03:35.162Z,73
2023-06-02T00:04:42.215Z,73
2023-06-02T00:05:49.466Z,73
2023-06-02T00:06:56.481Z,74
2023-06-02T00:08:03.073Z,74
2023-06-02T00:09:10.142Z,73
2023-06-02T00:10:17.267Z,73
2023-06-02T00:11:24.368Z,74
2023-06-02T00:12:30.916Z,74
2023-06-02T00:13:38.092Z,74
2023-06-02T00:14:45.704Z,74
2023-06-02T00:15:52.260Z,74
2023-06-02T00:16:59.359Z,74
2023-06-02T00:18:06.026Z,74
2023-06-02T00:19:13.106Z,74
2023-06-02T00:20:20.193Z,74
2023-06-02T00:21:27.297Z,74
2023-06-02T00:22:34.362Z,74
2023-06-02T00:23:40.924Z,74
2023-06-02T00:24:48.080Z,74
2023-06-02T00:25:55.187Z,74
2023-06-02T00:27:02.259Z,74
2023-06-02T00:28:09.400Z,74
2023-06-02T00:29:16.071Z,74
2023-06-02T00:30:23.060Z,74
2023-06-02T00:31:30.213Z,74
2023-06-02T00:32:37.397Z,75
2023-06-02T00:33:44.366Z,75
2023-06-02T00:34:50.948Z,75
2023-06-02T00:35:58.109Z,75
2023-06-02T00:37:05.211Z,75
2023-06-02T00:38:12.271Z,75
2023-06-02T00:39:19.363Z,75
2023-06-02T00:40:25.991Z,75
2023-06-02T00:41:33.073Z,75
2023-06-02T00:42:40.171Z,75
2023-06-02T00:43:47.378Z,75
2023-06-02T00:44:54.373Z,75
2023-06-02T00:46:00.953Z,75
2023-06-02T00:47:08.169Z,75
2023-06-02T00:48:15.244Z,75
2023-06-02T00:49:22.318Z,75
2023-06-02T00:50:29.496Z,75
2023-06-02T00:51:36.008Z,75
2023-06-02T00:53:50.219Z,75
2023-06-02T00:54:57.310Z,75
2023-06-02T00:56:04.548Z,75
2023-06-02T00:57:10.985Z,75
2023-06-02T00:58:18.109Z,75
2023-06-02T00:59:25.260Z,75
2023-06-02T01:00:32.343Z,75
2023-06-02T01:01:39.458Z,75
2023-06-02T01:02:46.038Z,75
2023-06-02T01:03:53.171Z,75
2023-06-02T01:05:00.227Z,75
2023-06-02T01:07:14.447Z,75
2023-06-02T01:08:20.998Z,75
2023-06-02T01:09:28.152Z,75
2023-06-02T01:10:35.289Z,75
2023-06-02T01:11:42.350Z,75
2023-06-02T01:12:49.480Z,75
2023-06-02T01:13:56.077Z,76
2023-06-02T01:15:03.147Z,76
2023-06-02T01:16:10.400Z,76
2023-06-02T01:17:17.341Z,76
2023-06-02T01:18:24.434Z,76
2023-06-02T01:19:31.057Z,76
2023-06-02T01:20:38.193Z,76
2023-06-02T01:21:45.345Z,76
2023-06-02T01:22:52.349Z,76
2023-06-02T01:23:59.457Z,76
2023-06-02T01:25:06.096Z,76
2023-06-02T01:26:15.601Z,76
2023-06-02T01:27:20.299Z,76
2023-06-02T01:28:27.385Z,76
2023-06-02T01:29:34.504Z,76
2023-06-02T01:30:41.027Z,76
2023-06-02T01:31:48.443Z,76
2023-06-02T01:32:55.326Z,76
2023-06-02T01:34:02.399Z,76
2023-06-02T01:35:09.496Z,76
2023-06-02T01:36:16.092Z,76
2023-06-02T01:37:23.140Z,76
2023-06-02T01:38:30.298Z,76
2023-06-02T01:39:37.376Z,76
2023-06-02T01:40:43.934Z,76
2023-06-02T01:41:51.076Z,76
2023-06-02T01:42:58.713Z,76
2023-06-02T01:44:05.332Z,76
2023-06-02T01:45:12.407Z,76
2023-06-02T01:46:18.988Z,76
2023-06-02T01:47:26.151Z,76
2023-06-02T01:48:33.161Z,76
2023-06-02T01:49:40.366Z,76
2023-06-02T01:50:47.408Z,76
2023-06-02T01:51:53.972Z,76
2023-06-02T01:53:01.088Z,76
2023-06-02T01:54:08.193Z,76
2023-06-02T01:55:15.319Z,76
2023-06-02T01:57:29.037Z,76
2023-06-02T01:58:36.119Z,77
2023-06-02T01:59:43.237Z,77
2023-06-02T02:00:50.331Z,77
2023-06-02T02:01:57.579Z,77
2023-06-02T02:03:04.067Z,77
2023-06-02T02:04:11.139Z,77
2023-06-02T02:05:18.246Z,77
2023-06-02T02:06:25.328Z,77
2023-06-02T02:07:32.412Z,77
2023-06-02T02:08:39.049Z,77
2023-06-02T02:09:46.157Z,77
2023-06-02T02:10:53.195Z,77
2023-06-02T02:12:00.324Z,77
2023-06-02T02:13:07.429Z,77
2023-06-02T02:14:14.068Z,77
2023-06-02T02:15:21.096Z,77
2023-06-02T02:16:28.240Z,77
2023-06-02T02:17:35.401Z,77
2023-06-02T02:18:42.524Z,77
2023-06-02T02:19:49.023Z,77
2023-06-02T02:20:56.112Z,77
2023-06-02T02:22:03.477Z,77
2023-06-02T02:23:10.323Z,77
2023-06-02T02:24:17.462Z,77
2023-06-02T02:25:24.049Z,77
2023-06-02T02:26:31.117Z,77
2023-06-02T02:27:38.231Z,77
2023-06-02T02:28:45.441Z,77
2023-06-02T02:29:52.443Z,77
2023-06-02T02:31:00.176Z,77
2023-06-02T02:32:06.148Z,77
2023-06-02T02:33:13.212Z,77
2023-06-02T02:35:27.459Z,77
2023-06-02T02:36:34.023Z,77
2023-06-02T02:37:47.166Z,77
2023-06-02T02:38:48.267Z,77
2023-06-02T02:39:55.381Z,77
2023-06-02T02:41:02.517Z,77
2023-06-02T02:42:09.062Z,77
2023-06-02T02:43:16.174Z,77
2023-06-02T02:44:23.332Z,77
2023-06-02T02:45:30.402Z,77
2023-06-02T02:46:37.508Z,77
2023-06-02T02:47:44.046Z,77
2023-06-02T02:48:51.152Z,77
2023-06-02T02:49:58.320Z,77
2023-06-02T02:51:05.529Z,77
2023-06-02T02:52:12.462Z,77
2023-06-02T02:53:19.087Z,77
2023-06-02T02:54:26.139Z,77
2023-06-02T02:55:33.270Z,77
2023-06-02T02:56:40.424Z,77
2023-06-02T02:57:47.522Z,77
2023-06-02T02:58:54.089Z,77
2023-06-02T03:01:08.331Z,77
2023-06-02T03:02:15.416Z,77
2023-06-02T03:03:21.952Z,77
2023-06-02T03:04:29.133Z,77
2023-06-02T03:05:36.216Z,77
2023-06-02T03:06:43.258Z,77
2023-06-02T03:07:50.380Z,77
2023-06-02T03:08:57.014Z,77
2023-06-02T03:10:04.058Z,77
2023-06-02T03:11:11.730Z,77
2023-06-02T03:12:18.306Z,77
2023-06-02T03:13:25.443Z,77
2023-06-02T03:14:32.009Z,77
2023-06-02T03:15:39.091Z,77
2023-06-02T03:16:46.345Z,77
2023-06-02T03:17:53.328Z,77
2023-06-02T03:19:00.369Z,77
2023-06-02T03:20:07.019Z,77
2023-06-02T03:21:14.074Z,77
2023-06-02T03:22:21.170Z,77
2023-06-02T03:23:28.320Z,77
2023-06-02T03:24:35.451Z,77
2023-06-02T03:25:41.971Z,77
2023-06-02T03:26:49.135Z,77
2023-06-02T03:27:56.299Z,77
2023-06-02T03:29:03.320Z,77
2023-06-02T03:30:10.397Z,77
2023-06-02T03:31:17.108Z,77
2023-06-02T03:32:24.154Z,77
2023-06-02T03:33:31.190Z,77
2023-06-02T03:34:38.340Z,77
2023-06-02T03:35:45.433Z,77
2023-06-02T03:36:51.990Z,77
2023-06-02T03:37:59.136Z,77
2023-06-02T03:39:06.378Z,77
2023-06-02T03:40:13.310Z,77
2023-06-02T03:41:20.414Z,77
2023-06-02T03:42:27.003Z,77
2023-06-02T03:43:34.117Z,77
2023-06-02T03:44:41.207Z,77
2023-06-02T03:45:48.354Z,77
2023-06-02T03:46:55.643Z,77
2023-06-02T03:48:02.099Z,77
2023-06-02T03:49:09.187Z,77
2023-06-02T03:50:16.244Z,77
2023-06-02T03:51:23.354Z,77
2023-06-02T03:52:30.426Z,77
2023-06-02T03:53:37.047Z,77
2023-06-02T03:54:44.184Z,77
2023-06-02T03:55:51.257Z,77
2023-06-02T03:56:58.383Z,77
2023-06-02T03:58:05.462Z,77
2023-06-02T03:59:12.052Z,77
2023-06-02T04:00:19.152Z,77
2023-06-02T04:01:26.296Z,77
2023-06-02T04:04:47.071Z,78
2023-06-02T04:05:54.139Z,78
2023-06-02T04:07:01.238Z,78
2023-06-02T04:08:08.390Z,78
2023-06-02T04:09:15.528Z,78
2023-06-02T04:10:22.059Z,78
2023-06-02T04:11:29.176Z,78
2023-06-02T04:12:36.295Z,78
2023-06-02T04:13:43.353Z,78
2023-06-02T04:14:50.485Z,78
2023-06-02T04:15:57.075Z,78
2023-06-02T04:17:04.156Z,78
2023-06-02T04:18:11.253Z,78
2023-06-02T04:19:18.440Z,78
2023-06-02T04:20:24.994Z,78
2023-06-02T04:21:32.096Z,78
2023-06-02T04:22:39.204Z,78
2023-06-02T04:23:46.320Z,78
2023-06-02T04:24:53.370Z,78
2023-06-02T04:25:59.996Z,78
2023-06-02T04:27:07.171Z,78
2023-06-02T04:28:14.209Z,78
2023-06-02T04:29:21.259Z,78
2023-06-02T04:30:28.424Z,78
2023-06-02T04:31:35.001Z,78
2023-06-02T04:32:42.133Z,78
2023-06-02T04:33:49.240Z,78
2023-06-02T04:34:56.373Z,78
2023-06-02T04:36:03.745Z,78
2023-06-02T04:37:10.014Z,78
2023-06-02T04:38:17.263Z,78
2023-06-02T04:39:24.744Z,78
2023-06-02T04:40:31.285Z,78
2023-06-02T04:41:38.418Z,78
2023-06-02T04:42:45.025Z,78
2023-06-02T04:43:52.091Z,78
2023-06-02T04:44:59.216Z,78
2023-06-02T04:46:06.677Z,78
2023-06-02T04:47:13.410Z,78
2023-06-02T04:48:20.048Z,78
2023-06-02T04:49:27.208Z,78
2023-06-02T04:50:34.223Z,78
2023-06-02T04:51:41.296Z,78
2023-06-02T04:52:48.440Z,78
2023-06-02T04:53:55.058Z,78
2023-06-02T04:55:02.162Z,78
2023-06-02T04:56:09.241Z,78
2023-06-02T04:57:16.326Z,78
2023-06-02T04:58:23.423Z,78
2023-06-02T04:59:30.069Z,78
2023-06-02T05:00:37.147Z,78
2023-06-02T05:01:44.276Z,78
2023-06-02T05:02:51.341Z,78
2023-06-02T05:03:58.466Z,78
2023-06-02T05:05:05.038Z,78
2023-06-02T05:06:12.514Z,78
2023-06-02T05:08:26.420Z,78
2023-06-02T05:09:33.436Z,78
2023-06-02T05:10:40.079Z,78
2023-06-02T05:11:47.193Z,78
2023-06-02T05:12:54.263Z,78
2023-06-02T05:14:01.377Z,78
2023-06-02T05:15:08.480Z,78
2023-06-02T05:16:15.594Z,78
2023-06-02T05:17:22.169Z,78
2023-06-02T05:18:29.262Z,78
2023-06-02T05:19:36.391Z,78
2023-06-02T05:20:43.727Z,78
2023-06-02T05:21:50.097Z,78
2023-06-02T05:22:57.144Z,78
2023-06-02T05:24:04.247Z,78
2023-06-02T05:25:11.892Z,78
2023-06-02T05:26:18.502Z,78
2023-06-02T05:27:25.068Z,78
2023-06-02T05:28:32.200Z,78
2023-06-02T05:29:39.336Z,78
2023-06-02T05:31:53.480Z,78
2023-06-02T05:33:00.110Z,78
2023-06-02T05:34:07.246Z,78
2023-06-02T05:35:14.277Z,78
2023-06-02T05:36:21.357Z,78
2023-06-02T05:37:28.543Z,78
2023-06-02T05:38:35.081Z,77
2023-06-02T05:39:42.183Z,77
2023-06-02T05:40:49.264Z,77
2023-06-02T05:41:56.392Z,77
2023-06-02T05:43:03.484Z,77
2023-06-02T05:44:10.143Z,77
2023-06-02T05:45:17.209Z,77
2023-06-02T05:46:24.342Z,77
2023-06-02T05:47:31.590Z,77
2023-06-02T05:48:38.607Z,77
2023-06-02T05:49:45.121Z,77
2023-06-02T05:50:52.193Z,77
2023-06-02T05:51:59.272Z,77
2023-06-02T05:53:06.408Z,77
2023-06-02T05:54:13.547Z,77
2023-06-02T05:55:20.114Z,77
2023-06-02T05:56:27.268Z,77
2023-06-02T05:57:34.302Z,77
2023-06-02T05:58:41.393Z,77
2023-06-02T05:59:48.036Z,77
2023-06-02T06:00:55.117Z,77
2023-06-02T06:02:02.265Z,77
2023-06-02T06:03:09.506Z,77
2023-06-02T06:04:16.507Z,76
2023-06-02T06:05:23.136Z,76
2023-06-02T06:06:30.144Z,76
2023-06-02T06:07:37.783Z,76
2023-06-02T06:08:44.442Z,76
2023-06-02T06:09:51.464Z,76
2023-06-02T06:12:05.134Z,76
2023-06-02T06:13:12.221Z,76
2023-06-02T06:14:19.297Z,75
2023-06-02T06:15:26.466Z,75
2023-06-02T06:16:33.230Z,75
2023-06-02T06:17:40.189Z,75
2023-06-02T06:18:47.257Z,75
2023-06-02T06:19:54.319Z,75
2023-06-02T06:21:01.425Z,75
2023-06-02T06:22:08.213Z,75
2023-06-02T06:23:15.150Z,75
2023-06-02T06:24:22.265Z,75
2023-06-02T06:25:29.476Z,75
2023-06-02T06:26:36.467Z,75
2023-06-02T06:27:43.063Z,75
2023-06-02T06:28:50.137Z,75
2023-06-02T06:29:57.264Z,75
2023-06-02T06:31:04.377Z,74
2023-06-02T06:32:11.450Z,74
2023-06-02T06:33:18.054Z,74
2023-06-02T06:34:25.196Z,74
2023-06-02T06:35:32.242Z,74
2023-06-02T06:36:39.398Z,74
2023-06-02T06:37:46.508Z,74
2023-06-02T06:38:53.036Z,74
2023-06-02T06:40:00.197Z,74
2023-06-02T06:41:07.293Z,74
2023-06-02T06:42:14.383Z,74
2023-06-02T06:43:24.767Z,74
2023-06-02T06:44:28.066Z,74
2023-06-02T06:45:35.178Z,74
2023-06-02T06:46:42.259Z,73
2023-06-02T06:47:49.535Z,73
2023-06-02T06:48:56.637Z,73
2023-06-02T06:50:03.049Z,73
2023-06-02T06:51:10.151Z,73
2023-06-02T06:52:23.991Z,73
2023-06-02T06:53:24.381Z,73
2023-06-02T06:54:31.532Z,73
2023-06-02T06:55:38.098Z,73
2023-06-02T06:56:45.212Z,73
2023-06-02T06:57:52.278Z,73
2023-06-02T07:00:06.512Z,73
2023-06-02T07:01:13.128Z,73
2023-06-02T07:02:20.225Z,72
2023-06-02T07:03:27.395Z,72
2023-06-02T07:04:34.411Z,72
2023-06-02T07:05:41.048Z,72
2023-06-02T07:06:48.094Z,72
2023-06-02T07:07:55.214Z,71
2023-06-02T07:09:02.294Z,71
2023-06-02T07:10:09.468Z,71
2023-06-02T07:11:16.033Z,71
2023-06-02T07:12:23.210Z,71
2023-06-02T07:13:30.215Z,71
2023-06-02T07:15:44.458Z,70
2023-06-02T07:16:51.049Z,70
2023-06-02T07:17:58.218Z,70
2023-06-02T07:19:05.216Z,71
2023-06-02T07:20:12.303Z,71
2023-06-02T07:21:19.466Z,71
2023-06-02T07:22:26.070Z,70
2023-06-02T07:23:33.194Z,70
2023-06-02T07:24:40.276Z,70
2023-06-02T07:25:47.358Z,69
2023-06-02T07:26:54.420Z,69
2023-06-02T07:28:01.003Z,69
2023-06-02T07:29:08.128Z,69
2023-06-02T07:30:15.293Z,69
2023-06-02T07:31:22.349Z,69
2023-06-02T07:32:29.544Z,69
2023-06-02T07:33:36.043Z,69
2023-06-02T07:34:43.108Z,69
2023-06-02T07:35:50.873Z,69
2023-06-02T07:36:57.342Z,69
2023-06-02T07:38:04.422Z,68
2023-06-02T07:39:11.125Z,68
2023-06-02T07:40:18.200Z,67
2023-06-02T07:41:25.250Z,68
2023-06-02T07:42:32.327Z,68
2023-06-02T07:43:39.513Z,68
2023-06-02T07:44:46.100Z,67
2023-06-02T07:45:53.151Z,67
2023-06-02T07:47:00.384Z,66
2023-06-02T07:48:07.405Z,66
2023-06-02T07:49:14.509Z,66
2023-06-02T07:50:21.010Z,66
2023-06-02T07:51:28.214Z,65
2023-06-02T07:52:35.307Z,65
2023-06-02T07:53:42.381Z,65
2023-06-02T07:54:49.576Z,65
2023-06-02T07:55:56.156Z,65
2023-06-02T07:57:03.162Z,65
2023-06-02T07:58:10.296Z,64
2023-06-02T07:59:17.356Z,64
2023-06-02T08:00:24.030Z,64
2023-06-02T08:01:31.027Z,63
2023-06-02T08:02:38.327Z,63
2023-06-02T08:03:45.422Z,63
2023-06-02T08:04:52.521Z,63
2023-06-02T08:05:59.500Z,63
2023-06-02T08:07:06.075Z,63
2023-06-02T08:08:13.164Z,63
2023-06-02T08:09:20.294Z,63
2023-06-02T08:10:27.456Z,63
2023-06-02T08:11:34.701Z,63
2023-06-02T08:12:41.066Z,63
2023-06-02T08:13:48.181Z,62
2023-06-02T08:14:55.309Z,62
2023-06-02T08:16:26.588Z,62
2023-06-02T08:17:09.026Z,62
2023-06-02T08:19:23.173Z,62
2023-06-02T08:20:30.303Z,62
2023-06-02T08:21:37.514Z,61
2023-06-02T08:22:43.975Z,61
2023-06-02T08:23:51.117Z,61
2023-06-02T08:24:58.263Z,61
2023-06-02T08:26:05.329Z,61
2023-06-02T08:27:12.407Z,60
2023-06-02T08:28:19.043Z,60
2023-06-02T08:29:26.120Z,60
2023-06-02T08:30:33.194Z,60
2023-06-02T08:31:40.719Z,60
2023-06-02T08:32:47.473Z,60
2023-06-02T08:33:53.988Z,60
2023-06-02T08:36:08.397Z,60
2023-06-02T08:37:15.421Z,59
2023-06-02T08:38:22.469Z,59
2023-06-02T08:39:29.036Z,59
2023-06-02T08:40:36.155Z,59
2023-06-02T08:41:43.240Z,59
2023-06-02T08:42:50.316Z,59
2023-06-02T08:43:57.487Z,59
2023-06-02T08:45:04.067Z,59
2023-06-02T08:46:11.177Z,59
2023-06-02T08:47:18.254Z,59
2023-06-02T08:48:25.336Z,58
2023-06-02T08:49:32.418Z,58
2023-06-02T08:50:39.065Z,58
2023-06-02T08:51:46.096Z,58
2023-06-02T08:52:53.210Z,58
2023-06-02T08:54:00.358Z,58
2023-06-02T08:55:07.454Z,58
2023-06-02T08:56:15.736Z,59
2023-06-02T08:57:21.116Z,59
2023-06-02T08:58:28.250Z,59
2023-06-02T08:59:35.364Z,59
2023-06-02T09:00:42.435Z,59
2023-06-02T09:01:49.054Z,59
2023-06-02T09:02:56.126Z,59
2023-06-02T09:04:05.721Z,59
2023-06-02T09:05:10.339Z,59
2023-06-02T09:06:17.474Z,59
2023-06-02T09:07:24.093Z,59
2023-06-02T09:08:31.136Z,58
2023-06-02T09:09:38.324Z,58
2023-06-02T09:10:45.358Z,59
2023-06-02T09:11:51.925Z,59
2023-06-02T09:12:59.078Z,59
2023-06-02T09:14:06.271Z,59
2023-06-02T09:18:34.074Z,58
2023-06-02T09:19:41.145Z,58
2023-06-02T09:26:23.496Z,59
2023-06-02T09:27:30.388Z,59
2023-06-02T09:28:36.947Z,59
2023-06-02T09:29:44.097Z,59
2023-06-02T09:30:51.195Z,59
2023-06-02T09:31:58.333Z,58
2023-06-02T09:33:05.527Z,58
2023-06-02T09:34:11.972Z,58
2023-06-02T09:35:19.108Z,59
2023-06-02T09:36:26.207Z,59
2023-06-02T09:37:33.311Z,59
2023-06-02T09:38:40.382Z,59
2023-06-02T09:39:46.974Z,58
2023-06-02T09:40:54.128Z,58
2023-06-02T09:42:01.192Z,58
2023-06-02T09:43:08.352Z,58
2023-06-02T09:44:15.424Z,58
2023-06-02T09:45:22.042Z,57
2023-06-02T09:46:29.218Z,57
2023-06-02T09:47:36.389Z,57
2023-06-02T09:48:43.373Z,57
2023-06-02T09:49:50.406Z,57
2023-06-02T09:50:57.197Z,57
2023-06-02T09:52:04.097Z,57
2023-06-02T09:53:11.206Z,57
2023-06-02T09:54:18.360Z,57
2023-06-02T09:55:25.476Z,57
2023-06-02T09:56:31.999Z,57
2023-06-02T09:57:39.164Z,57
2023-06-02T09:58:46.224Z,57
2023-06-02T09:59:53.300Z,57
2023-06-02T10:01:00.521Z,57
2023-06-02T10:02:07.069Z,57
2023-06-02T10:03:14.253Z,57
2023-06-02T10:04:21.261Z,57
2023-06-02T10:05:28.368Z,57
2023-06-02T10:06:34.967Z,57
2023-06-02T10:07:42.003Z,57
2023-06-02T10:08:49.177Z,58
2023-06-02T10:09:56.259Z,58
2023-06-02T10:11:03.677Z,59
2023-06-02T10:12:09.970Z,59
2023-06-02T10:13:17.061Z,60
2023-06-02T10:14:24.116Z,60
2023-06-02T10:15:31.332Z,61
2023-06-02T10:16:38.359Z,61
2023-06-02T10:17:45.027Z,61
2023-06-02T10:18:52.031Z,61
2023-06-02T10:19:59.242Z,61
2023-06-02T10:21:06.540Z,61
2023-06-02T10:22:13.449Z,61
2023-06-02T10:23:20.064Z,61
2023-06-02T10:24:27.138Z,61
2023-06-02T10:26:41.248Z,61
2023-06-02T10:27:48.357Z,61
2023-06-02T10:28:54.978Z,61
2023-06-02T10:30:02.128Z,61
2023-06-02T10:31:09.361Z,61
2023-06-02T10:33:23.363Z,61
2023-06-02T10:34:29.979Z,61
2023-06-02T10:35:37.091Z,61
2023-06-02T10:36:44.149Z,61
2023-06-02T10:37:51.298Z,61
2023-06-02T10:38:58.372Z,61
2023-06-02T10:40:04.988Z,61
2023-06-02T10:41:12.073Z,61
2023-06-02T10:42:19.237Z,61
2023-06-02T10:43:26.308Z,60
2023-06-02T10:44:33.382Z,60
2023-06-02T10:45:40.069Z,60
2023-06-02T10:46:47.173Z,60
2023-06-02T10:47:54.173Z,60
2023-06-02T10:49:01.294Z,59
2023-06-02T10:50:12.215Z,59
2023-06-02T10:51:15.525Z,59
2023-06-02T10:52:22.067Z,59
2023-06-02T10:53:29.212Z,59
2023-06-02T10:54:36.318Z,59
2023-06-02T10:55:42.928Z,59
2023-06-02T10:56:50.022Z,59
2023-06-02T10:57:57.113Z,59
2023-06-02T10:59:04.208Z,59
2023-06-02T11:00:11.281Z,59
2023-06-02T11:01:18.452Z,58
2023-06-02T11:02:25.029Z,58
2023-06-02T11:03:32.183Z,58
2023-06-02T11:04:39.203Z,58
2023-06-02T11:05:46.357Z,58
2023-06-02T11:06:53.405Z,58
2023-06-02T11:08:00.045Z,58
2023-06-02T11:09:07.076Z,58
2023-06-02T11:10:14.237Z,58
2023-06-02T11:11:21.295Z,58
2023-06-02T11:12:27.943Z,58
2023-06-02T11:13:35.041Z,58
2023-06-02T11:14:42.105Z,58
2023-06-02T11:15:49.385Z,58
2023-06-02T11:16:56.470Z,58
2023-06-02T11:18:02.946Z,58
2023-06-02T11:19:10.008Z,58
2023-06-02T11:20:17.148Z,58
2023-06-02T11:21:26.319Z,58
2023-06-02T11:22:31.408Z,58
2023-06-02T11:23:37.932Z,57
2023-06-02T11:24:45.024Z,57
2023-06-02T11:25:52.135Z,57
2023-06-02T11:26:59.368Z,57
2023-06-02T11:28:06.362Z,57
2023-06-02T11:30:20.470Z,58
2023-06-02T11:31:27.549Z,57
2023-06-02T11:32:34.286Z,57
2023-06-02T11:33:41.331Z,57
2023-06-02T11:34:47.942Z,56
2023-06-02T11:35:55.106Z,56
2023-06-02T11:37:02.123Z,56
2023-06-02T11:38:09.418Z,56
2023-06-02T11:39:16.389Z,56
2023-06-02T11:40:22.921Z,56
2023-06-02T11:41:30.045Z,56
2023-06-02T11:42:37.215Z,56
2023-06-02T11:43:44.351Z,56
2023-06-02T11:44:51.344Z,56
2023-06-02T11:45:58.015Z,56
2023-06-02T11:47:05.104Z,56
2023-06-02T11:48:12.362Z,56
2023-06-02T11:49:19.392Z,56
2023-06-02T11:50:26.374Z,56
2023-06-02T11:51:32.984Z,56
2023-06-02T11:52:40.183Z,56
2023-06-02T11:53:47.191Z,56
2023-06-02T11:54:54.306Z,57
2023-06-02T11:56:01.666Z,56
2023-06-02T11:57:07.981Z,57
2023-06-02T11:58:15.079Z,56
2023-06-02T11:59:22.925Z,56
2023-06-02T12:01:36.431Z,57
2023-06-02T12:02:43.226Z,57
2023-06-02T12:03:50.235Z,57
2023-06-02T12:04:57.242Z,57
2023-06-02T12:06:04.268Z,57
2023-06-02T12:07:11.392Z,57
2023-06-02T12:08:18.009Z,57
2023-06-02T12:09:25.122Z,57
2023-06-02T12:10:32.409Z,57
2023-06-02T12:11:39.343Z,58
2023-06-02T12:12:46.415Z,58
2023-06-02T12:13:52.956Z,59
2023-06-02T12:15:00.152Z,59
2023-06-02T12:16:08.331Z,59
2023-06-02T12:17:14.440Z,59
2023-06-02T12:18:20.913Z,58
2023-06-02T12:19:28.011Z,58
2023-06-02T12:20:35.124Z,58
2023-06-02T12:21:42.247Z,58
2023-06-02T12:22:49.340Z,59
2023-06-02T12:23:55.957Z,58
2023-06-02T12:25:02.967Z,59
2023-06-02T12:26:10.143Z,59
2023-06-02T12:27:17.212Z,59
2023-06-02T12:28:24.288Z,59
2023-06-02T12:29:30.939Z,59
2023-06-02T12:30:38.097Z,59
2023-06-02T12:31:45.255Z,59
2023-06-02T12:33:59.352Z,59
2023-06-02T12:35:05.929Z,59
2023-06-02T12:36:15.619Z,59
2023-06-02T12:37:20.139Z,59
2023-06-02T12:38:27.257Z,60
2023-06-02T12:39:34.323Z,60
2023-06-02T12:40:40.916Z,60
2023-06-02T12:41:48.028Z,60
2023-06-02T12:42:55.167Z,60
2023-06-02T12:44:02.222Z,60
2023-06-02T12:45:09.359Z,60
2023-06-02T12:46:15.949Z,60
2023-06-02T12:47:23.050Z,61
2023-06-02T12:48:30.177Z,61
2023-06-02T12:49:37.257Z,61
2023-06-02T12:50:44.320Z,61
2023-06-02T12:51:50.974Z,61
2023-06-02T12:52:58.067Z,61
2023-06-02T12:54:05.192Z,61
2023-06-02T12:55:12.269Z,61
2023-06-02T12:56:19.372Z,61
2023-06-02T12:57:25.989Z,60
2023-06-02T12:58:33.073Z,60
2023-06-02T12:59:40.178Z,61
2023-06-02T13:00:47.333Z,61
2023-06-02T13:01:54.377Z,61
2023-06-02T13:03:00.996Z,60
2023-06-02T13:04:08.342Z,60
2023-06-02T13:05:15.231Z,60
2023-06-02T13:06:22.274Z,61
2023-06-02T13:07:29.492Z,61
2023-06-02T13:08:35.983Z,61
2023-06-02T13:09:43.067Z,61
2023-06-02T13:10:50.188Z,61
2023-06-02T13:11:57.298Z,61
2023-06-02T13:13:03.838Z,61
2023-06-02T13:14:10.973Z,61
2023-06-02T13:15:18.120Z,61
2023-06-02T13:16:25.239Z,61
2023-06-02T13:17:32.319Z,61
2023-06-02T13:18:38.888Z,61
2023-06-02T13:19:46.034Z,61
2023-06-02T13:20:53.056Z,61
2023-06-02T13:22:00.340Z,61
2023-06-02T13:23:07.311Z,61
2023-06-02T13:24:13.875Z,61
2023-06-02T13:25:21.042Z,61
2023-06-02T13:26:28.095Z,61
2023-06-02T13:29:48.941Z,61
2023-06-02T13:30:56.011Z,61
2023-06-02T13:32:03.182Z,61
2023-06-02T13:33:10.245Z,61
2023-06-02T13:34:17.332Z,61
2023-06-02T13:35:23.935Z,61
2023-06-02T13:37:38.177Z,61
2023-06-02T13:38:45.286Z,61
2023-06-02T13:39:51.814Z,61
2023-06-02T13:40:58.924Z,61
2023-06-02T13:42:05.988Z,61
2023-06-02T13:43:13.106Z,61
2023-06-02T13:44:20.254Z,61
2023-06-02T13:45:27.383Z,61
2023-06-02T13:46:33.939Z,62
2023-06-02T13:47:41.028Z,62
2023-06-02T13:48:48.130Z,62
2023-06-02T13:49:55.233Z,61
2023-06-02T13:51:04.269Z,62
2023-06-02T13:52:08.968Z,62
2023-06-02T13:53:16.135Z,62
2023-06-02T13:54:23.102Z,62
2023-06-02T13:55:30.275Z,62
2023-06-02T13:56:37.350Z,62
2023-06-02T13:57:43.909Z,62
2023-06-02T13:58:51.038Z,62
2023-06-02T13:59:58.135Z,62
2023-06-02T14:01:05.381Z,62
2023-06-02T14:02:12.438Z,62
2023-06-02T14:03:19.129Z,62
2023-06-02T14:04:26.203Z,62
2023-06-02T14:05:33.138Z,62
2023-06-02T14:06:40.258Z,62
2023-06-02T14:07:47.367Z,62
2023-06-02T14:08:54.028Z,62
2023-06-02T14:10:01.045Z,62
2023-06-02T14:11:08.224Z,62
2023-06-02T14:12:15.288Z,62
2023-06-02T14:13:21.834Z,62
2023-06-02T14:14:28.971Z,62
2023-06-02T14:15:36.127Z,62
2023-06-02T14:16:43.236Z,62
2023-06-02T14:17:50.413Z,62
2023-06-02T14:18:57.354Z,62
2023-06-02T14:20:03.965Z,62
2023-06-02T14:21:11.133Z,62
2023-06-02T14:22:18.176Z,62
2023-06-02T14:23:25.276Z,62
2023-06-02T14:24:31.829Z,62
2023-06-02T14:25:38.965Z,62
2023-06-02T14:26:46.082Z,62
2023-06-02T14:27:53.141Z,62
2023-06-02T14:29:00.324Z,62
2023-06-02T14:30:07.116Z,62
2023-06-02T14:31:14.007Z,62
2023-06-02T14:32:21.103Z,62
2023-06-02T14:33:28.209Z,62
2023-06-02T14:34:35.305Z,62
2023-06-02T14:35:41.835Z,62
2023-06-02T14:36:48.988Z,62
2023-06-02T14:37:56.102Z,62
2023-06-02T14:39:03.175Z,62
2023-06-02T14:41:16.997Z,62
2023-06-02T14:42:24.957Z,62
2023-06-02T14:43:31.052Z,62
2023-06-02T14:44:38.210Z,62
2023-06-02T14:45:45.351Z,62
2023-06-02T14:46:51.907Z,62
2023-06-02T14:47:59.069Z,62
2023-06-02T14:49:06.127Z,62
2023-06-02T14:50:13.174Z,62
2023-06-02T14:51:20.322Z,62
2023-06-02T14:52:26.950Z,62
2023-06-02T14:53:33.989Z,62
2023-06-02T14:54:41.213Z,62
2023-06-02T14:55:48.347Z,62
2023-06-02T14:58:01.913Z,62
2023-06-02T14:59:11.953Z,62
2023-06-02T15:00:16.136Z,62
2023-06-02T15:01:23.301Z,62
2023-06-02T15:02:30.329Z,62
2023-06-02T15:03:37.054Z,62
2023-06-02T15:04:43.985Z,62
2023-06-02T15:05:51.138Z,62
2023-06-02T15:06:58.191Z,62
2023-06-02T15:08:05.330Z,62
2023-06-02T15:09:11.951Z,62
2023-06-02T15:10:19.062Z,62
2023-06-02T15:11:26.151Z,62
2023-06-02T15:12:33.237Z,62
2023-06-02T15:13:39.851Z,62
2023-06-02T15:14:46.954Z,62
2023-06-02T15:15:54.016Z,62
2023-06-02T15:17:01.183Z,62
2023-06-02T15:18:08.259Z,62
2023-06-02T15:19:14.825Z,62
2023-06-02T15:20:21.912Z,62
2023-06-02T15:21:29.149Z,62
2023-06-02T15:22:36.157Z,62
2023-06-02T15:23:43.296Z,62
2023-06-02T15:24:49.860Z,62
2023-06-02T15:25:57.040Z,62
2023-06-02T15:27:04.030Z,62
2023-06-02T15:28:11.141Z,62
2023-06-02T15:29:18.310Z,62
2023-06-02T15:30:25.360Z,62
2023-06-02T15:31:32.102Z,62
2023-06-02T15:32:39.059Z,62
2023-06-02T15:33:46.182Z,62
2023-06-02T15:34:53.251Z,62
2023-06-02T15:35:59.976Z,62
2023-06-02T15:37:06.962Z,62
2023-06-02T15:38:14.031Z,62
2023-06-02T15:39:21.148Z,62
2023-06-02T15:40:28.407Z,62
2023-06-02T15:41:34.887Z,62
2023-06-02T15:42:42.067Z,62
2023-06-02T15:44:56.184Z,62
2023-06-02T15:46:03.514Z,62
2023-06-02T15:47:09.876Z,62
2023-06-02T15:48:16.987Z,62
2023-06-02T15:49:24.060Z,62
2023-06-02T15:50:31.175Z,62
2023-06-02T15:51:38.332Z,62
2023-06-02T15:52:44.887Z,62
2023-06-02T15:53:51.970Z,62
2023-06-02T15:54:59.086Z,62
2023-06-02T15:56:06.398Z,62
2023-06-02T15:57:13.287Z,62
2023-06-02T15:58:19.881Z,62
2023-06-02T15:59:27.005Z,62
2023-06-02T16:00:34.140Z,62
2023-06-02T16:01:41.231Z,62
2023-06-02T16:02:48.351Z,62
2023-06-02T16:03:54.962Z,63
2023-06-02T16:05:01.970Z,63
2023-06-02T16:06:09.280Z,63
2023-06-02T16:07:16.239Z,63
2023-06-02T16:08:22.766Z,63
2023-06-02T16:09:29.872Z,63
2023-06-02T16:10:37.091Z,63
2023-06-02T16:11:44.101Z,63
2023-06-02T16:12:51.193Z,63
2023-06-02T16:13:58.332Z,63
2023-06-02T16:15:04.945Z,63
2023-06-02T16:16:12.006Z,63
2023-06-02T16:17:19.113Z,63
2023-06-02T16:18:26.214Z,63
2023-06-02T16:19:32.800Z,62
2023-06-02T16:20:39.954Z,62
2023-06-02T16:21:47.108Z,62
2023-06-02T16:22:54.102Z,62
2023-06-02T16:24:01.226Z,63
2023-06-02T16:26:15.862Z,62
2023-06-02T16:27:22.001Z,62
2023-06-02T16:28:29.149Z,62
2023-06-02T16:29:36.243Z,63
2023-06-02T16:30:42.786Z,62
2023-06-02T16:31:50.052Z,63
2023-06-02T16:32:57.125Z,63